#dbistima — V2PX5 — position and weather

sailwx.info

Track history (hours):
 
Tides and Currents Weather Stations Pressure Air Temp Water Temp Dewpoint Dewpoint Depression Visibility Wind Speed Wind Dir Waves Ship Positions

#dbistima

Last reported at 2017-Jun-24 20:30 UTC. Time now 2017-Jun-24 20:37 UTC.
Position N 63°33' E 009°52'.

MMSI: 304010972.

Date/timePositionNaut miles runAvg speedWind from/ knotsBaromVisibWave heightAir tempDewpointWater temp
2017-Jun-24 20:30N 63°33' E 009°52'5 9.0
2017-Jun-24 20:00N 63°29' E 009°56'4 8.7
2017-Jun-24 19:30N 63°25' E 010°00'5 9.9
2017-Jun-24 19:00N 63°21' E 009°55'3 5.0
2017-Jun-24 18:30N 63°19' E 009°51'0 0.0
2017-Jun-24 18:00N 63°19' E 009°51'0 0.0
2017-Jun-24 17:30N 63°19' E 009°51'0 0.0
2017-Jun-24 17:00N 63°19' E 009°51'0 0.0
2017-Jun-24 16:30N 63°19' E 009°51'0 0.0
2017-Jun-24 16:00N 63°19' E 009°51'0 0.0
2017-Jun-24 15:27N 63°19' E 009°51'0 0.0
2017-Jun-24 15:00N 63°19' E 009°51'0 0.0
2017-Jun-24 14:00N 63°19' E 009°51'0 0.0
2017-Jun-24 13:30N 63°19' E 009°51'0 0.0
2017-Jun-24 13:00N 63°19' E 009°51'0 0.0
2017-Jun-24 12:30N 63°19' E 009°51'0 0.0
2017-Jun-24 12:00N 63°19' E 009°51'0 0.0
2017-Jun-24 11:30N 63°19' E 009°51'0 0.0
2017-Jun-24 11:00N 63°19' E 009°51'0 0.0
2017-Jun-24 10:30N 63°19' E 009°51'0 0.0
2017-Jun-24 10:00N 63°19' E 009°51'0 0.0
2017-Jun-24 09:30N 63°19' E 009°51'0 0.0
2017-Jun-24 09:00N 63°19' E 009°51'0 0.0
2017-Jun-24 08:30N 63°19' E 009°51'0 0.0
2017-Jun-24 08:00N 63°19' E 009°51'0 0.0
2017-Jun-24 07:30N 63°19' E 009°51'0 0.0
2017-Jun-24 07:00N 63°19' E 009°51'0 0.0
2017-Jun-24 06:30N 63°19' E 009°51'0 0.0
2017-Jun-24 06:00N 63°19' E 009°51'0 0.0
2017-Jun-24 05:30N 63°19' E 009°51'0 0.0
2017-Jun-24 05:00N 63°19' E 009°51'0 0.0
2017-Jun-24 04:30N 63°19' E 009°51'0 0.0
2017-Jun-24 04:00N 63°19' E 009°51'0 0.0
2017-Jun-24 03:30N 63°19' E 009°51'0 0.0
2017-Jun-24 03:00N 63°19' E 009°51'0 0.0
2017-Jun-24 02:30N 63°19' E 009°51'0 0.0
2017-Jun-24 02:00N 63°19' E 009°51'0 0.0
2017-Jun-24 01:30N 63°19' E 009°51'0 0.0
2017-Jun-24 01:00N 63°19' E 009°51'0 0.0
2017-Jun-24 00:30N 63°19' E 009°51'0 0.0
2017-Jun-24 00:00N 63°19' E 009°51'0 0.0
2017-Jun-23 23:30N 63°19' E 009°51'0 0.0
2017-Jun-23 23:00N 63°19' E 009°51'0 0.0
2017-Jun-23 22:30N 63°19' E 009°51'0 0.0
2017-Jun-23 22:00N 63°19' E 009°51'0 0.0
2017-Jun-23 21:30N 63°19' E 009°51'0 0.0
2017-Jun-23 21:00N 63°19' E 009°51'0 0.0
2017-Jun-23 20:27N 63°19' E 009°51'0 0.0
2017-Jun-23 20:00N 63°19' E 009°51'0 0.0
2017-Jun-23 19:30N 63°19' E 009°51'0 0.0
2017-Jun-23 19:00N 63°19' E 009°51'0 0.0
2017-Jun-23 18:30N 63°19' E 009°51'0 0.0
2017-Jun-23 18:00N 63°19' E 009°51'0 0.0
2017-Jun-23 17:30N 63°19' E 009°51'0 0.0
2017-Jun-23 17:00N 63°19' E 009°51'0 0.0
2017-Jun-23 16:30N 63°19' E 009°51'0 0.2
2017-Jun-23 16:00N 63°19' E 009°51'0 0.0
2017-Jun-23 15:30N 63°19' E 009°51'0 0.0
2017-Jun-23 15:00N 63°19' E 009°51'0 0.0
2017-Jun-23 14:00N 63°19' E 009°51'0 0.0
2017-Jun-23 13:30N 63°19' E 009°51'0 0.0
2017-Jun-23 13:00N 63°19' E 009°51'0 0.0
2017-Jun-23 12:30N 63°19' E 009°51'0 0.0
2017-Jun-23 12:00N 63°19' E 009°51'0 0.0
2017-Jun-23 11:30N 63°19' E 009°51'0 0.0
2017-Jun-23 11:00N 63°19' E 009°51'0 0.0
2017-Jun-23 10:30N 63°19' E 009°51'0 0.0
2017-Jun-23 10:00N 63°19' E 009°51'0 0.0
2017-Jun-23 09:30N 63°19' E 009°51'0 0.0
2017-Jun-23 09:00N 63°19' E 009°51'0 0.0
2017-Jun-23 08:30N 63°19' E 009°51'0 0.0
2017-Jun-23 08:00N 63°19' E 009°51'0 0.0
2017-Jun-23 07:30N 63°19' E 009°51'0 0.0
2017-Jun-23 07:00N 63°19' E 009°51'0 0.0
2017-Jun-23 06:27N 63°19' E 009°51'0 0.0
2017-Jun-23 06:00N 63°19' E 009°51'0 0.0
2017-Jun-23 05:30N 63°19' E 009°51'0 0.5
2017-Jun-23 05:00N 63°19' E 009°51'3 6.0
2017-Jun-23 04:30N 63°21' E 009°56'510.7
2017-Jun-23 04:00N 63°26' E 009°59'510.2
2017-Jun-23 03:30N 63°31' E 009°54'5 9.7
2017-Jun-23 03:00N 63°35' E 009°49'4 8.6
2017-Jun-23 02:30N 63°39' E 009°45'5 9.1
2017-Jun-23 02:00N 63°38' E 009°36'4 8.6
2017-Jun-23 01:30N 63°36' E 009°28'5 9.5
2017-Jun-23 01:00N 63°33' E 009°18'5 9.5
2017-Jun-23 00:30N 63°31' E 009°09'4 7.2
2017-Jun-23 00:00N 63°28' E 009°05'5 9.9
2017-Jun-22 23:30N 63°23' E 009°11'4 8.5
2017-Jun-22 23:00N 63°19' E 009°08'0 0.7
2017-Jun-22 22:28N 63°19' E 009°09'0 0.0
2017-Jun-22 21:58N 63°19' E 009°09'0 0.0
2017-Jun-22 21:28N 63°19' E 009°09'0 0.0
2017-Jun-22 20:58N 63°19' E 009°09'0 0.0
2017-Jun-22 20:28N 63°19' E 009°09'0 0.0
2017-Jun-22 19:58N 63°19' E 009°09'0 0.0
2017-Jun-22 19:28N 63°19' E 009°09'0 0.0
2017-Jun-22 18:58N 63°19' E 009°09'0 0.0
2017-Jun-22 18:28N 63°19' E 009°09'0 0.0
2017-Jun-22 17:58N 63°19' E 009°09'0 0.0
2017-Jun-22 17:28N 63°19' E 009°09'0 0.0
2017-Jun-22 16:58N 63°19' E 009°09'0 0.0
2017-Jun-22 16:28N 63°19' E 009°09'0 0.0
2017-Jun-22 15:58N 63°19' E 009°09'0 0.0
2017-Jun-22 15:28N 63°19' E 009°09'0 0.0
2017-Jun-22 14:58N 63°19' E 009°09'0 0.0
2017-Jun-22 14:28N 63°19' E 009°09'0 0.0
2017-Jun-22 13:28N 63°19' E 009°09'0 0.0
2017-Jun-22 12:58N 63°19' E 009°09'0 0.0
2017-Jun-22 12:25N 63°19' E 009°09'0 0.0
2017-Jun-22 11:58N 63°19' E 009°09'0 0.0
2017-Jun-22 11:28N 63°19' E 009°09'0 0.0
2017-Jun-22 10:55N 63°19' E 009°09'0 0.0
2017-Jun-22 10:28N 63°19' E 009°09'0 0.0
2017-Jun-22 09:58N 63°19' E 009°09'0 0.0
2017-Jun-22 09:25N 63°19' E 009°09'0 0.0
2017-Jun-22 08:58N 63°19' E 009°09'0 0.0
2017-Jun-22 08:28N 63°19' E 009°09'0 0.0
2017-Jun-22 07:58N 63°19' E 009°09'0 0.0
2017-Jun-22 07:28N 63°19' E 009°09'0 0.0
2017-Jun-22 06:58N 63°19' E 009°09'0 0.0
2017-Jun-22 06:28N 63°19' E 009°09'0 0.0
2017-Jun-22 05:58N 63°19' E 009°09'0 0.0
2017-Jun-22 05:28N 63°19' E 009°09'0 0.0
2017-Jun-22 04:58N 63°19' E 009°09'0 0.0
2017-Jun-22 04:22N 63°19' E 009°09'0 0.0
2017-Jun-22 03:58N 63°19' E 009°09'0 0.0
2017-Jun-22 03:28N 63°19' E 009°09'0 0.0
2017-Jun-22 02:58N 63°19' E 009°09'0 0.0
2017-Jun-22 02:28N 63°19' E 009°09'0 0.0
2017-Jun-22 01:58N 63°19' E 009°09'0 0.0
2017-Jun-22 01:28N 63°19' E 009°09'0 0.0
2017-Jun-22 00:58N 63°19' E 009°09'0 0.0
2017-Jun-22 00:28N 63°19' E 009°09'0 0.0
2017-Jun-21 23:58N 63°19' E 009°09'0 0.0
2017-Jun-21 23:28N 63°19' E 009°09'0 0.0
2017-Jun-21 22:55N 63°19' E 009°09'0 0.0
2017-Jun-21 22:28N 63°19' E 009°09'0 0.0
2017-Jun-21 21:58N 63°19' E 009°09'0 0.0
2017-Jun-21 21:25N 63°19' E 009°09'0 0.0
2017-Jun-21 20:58N 63°19' E 009°09'0 0.0
2017-Jun-21 20:28N 63°19' E 009°09'0 0.0
2017-Jun-21 19:58N 63°19' E 009°09'0 0.0
2017-Jun-21 19:28N 63°19' E 009°09'0 0.0
2017-Jun-21 18:58N 63°19' E 009°09'0 0.0
2017-Jun-21 18:28N 63°19' E 009°09'0 0.0
2017-Jun-21 17:58N 63°19' E 009°09'0 0.0
2017-Jun-21 17:28N 63°19' E 009°09'0 0.0
2017-Jun-21 16:58N 63°19' E 009°09'0 0.0
2017-Jun-21 16:28N 63°19' E 009°09'0 0.0
2017-Jun-21 15:58N 63°19' E 009°09'0 0.0
2017-Jun-21 15:28N 63°19' E 009°09'0 0.0
2017-Jun-21 14:58N 63°19' E 009°09'0 0.0
2017-Jun-21 14:28N 63°19' E 009°09'0 0.0
2017-Jun-21 13:22N 63°19' E 009°09'0 0.0
2017-Jun-21 12:58N 63°19' E 009°09'0 0.0
2017-Jun-21 12:22N 63°19' E 009°09'0 0.0
2017-Jun-21 11:49N 63°19' E 009°09'0 0.0
2017-Jun-21 11:28N 63°19' E 009°09'0 0.0
2017-Jun-21 10:58N 63°19' E 009°09'0 0.0
2017-Jun-21 10:25N 63°19' E 009°09'0 0.0
2017-Jun-21 09:52N 63°19' E 009°09'0 0.0
2017-Jun-21 09:28N 63°19' E 009°09'0 0.0
2017-Jun-21 08:58N 63°19' E 009°09'0 0.0
2017-Jun-21 07:55N 63°19' E 009°09'0 0.0
2017-Jun-21 07:28N 63°19' E 009°09'0 0.0
2017-Jun-21 06:58N 63°19' E 009°09'0 0.0
2017-Jun-21 06:13N 63°19' E 009°09'0 0.0
2017-Jun-21 05:58N 63°19' E 009°09'0 0.0
2017-Jun-21 05:28N 63°19' E 009°09'0 0.0
2017-Jun-21 04:55N 63°19' E 009°09'0 0.0
2017-Jun-21 04:28N 63°19' E 009°09'0 0.0
2017-Jun-21 03:58N 63°19' E 009°09'0 0.0
2017-Jun-21 03:28N 63°19' E 009°09'0 0.0
2017-Jun-21 02:58N 63°19' E 009°09'0 0.0
2017-Jun-21 02:28N 63°19' E 009°09'0 0.0
2017-Jun-21 01:55N 63°19' E 009°09'0 0.0
2017-Jun-21 01:28N 63°19' E 009°09'0 0.0
2017-Jun-21 00:58N 63°19' E 009°09'0 0.0
2017-Jun-21 00:19N 63°19' E 009°09'0 0.0
2017-Jun-20 23:58N 63°19' E 009°09'0 0.0
2017-Jun-20 23:28N 63°19' E 009°09'0 0.0
2017-Jun-20 22:58N 63°19' E 009°09'0 0.0
2017-Jun-20 22:28N 63°19' E 009°09'0 0.0
2017-Jun-20 21:58N 63°19' E 009°09'0 0.0
2017-Jun-20 21:28N 63°19' E 009°09'0 0.0
2017-Jun-20 20:58N 63°19' E 009°09'0 0.0
2017-Jun-20 20:28N 63°19' E 009°09'0 0.0
2017-Jun-20 19:58N 63°19' E 009°09'0 0.0
2017-Jun-20 19:07N 63°19' E 009°09'0 0.0
2017-Jun-20 18:58N 63°19' E 009°09'0 0.0
2017-Jun-20 18:19N 63°19' E 009°09'0 0.0
2017-Jun-20 17:58N 63°19' E 009°09'0 0.0
2017-Jun-20 17:28N 63°19' E 009°09'0 0.0
2017-Jun-20 16:55N 63°19' E 009°09'0 0.0
2017-Jun-20 16:25N 63°19' E 009°09'0 0.0
2017-Jun-20 15:55N 63°19' E 009°09'0 0.0
2017-Jun-20 15:16N 63°19' E 009°09'0 0.0
2017-Jun-20 14:49N 63°19' E 009°09'0 0.0
2017-Jun-20 14:25N 63°19' E 009°09'0 0.0
2017-Jun-20 13:22N 63°19' E 009°09'0 0.0
2017-Jun-20 12:43N 63°19' E 009°09'0 0.0
2017-Jun-20 12:28N 63°19' E 009°09'0 0.0
2017-Jun-20 11:49N 63°19' E 009°09'0 0.0
2017-Jun-20 11:25N 63°19' E 009°09'0 0.0
2017-Jun-20 10:49N 63°19' E 009°09'0 0.0
2017-Jun-20 10:28N 63°19' E 009°09'0 0.0
2017-Jun-20 09:55N 63°19' E 009°09'0 0.0
2017-Jun-20 09:28N 63°19' E 009°09'0 0.0
2017-Jun-20 08:55N 63°19' E 009°09'0 0.0
2017-Jun-20 08:25N 63°19' E 009°09'0 0.0
2017-Jun-20 07:55N 63°19' E 009°09'0 0.0
2017-Jun-20 07:22N 63°19' E 009°09'0 0.0
2017-Jun-20 06:58N 63°19' E 009°09'0 0.0
2017-Jun-20 06:28N 63°19' E 009°09'0 0.0
2017-Jun-20 05:55N 63°19' E 009°09'0 0.0
2017-Jun-20 05:28N 63°19' E 009°09'0 0.0
2017-Jun-20 04:58N 63°19' E 009°09'2 3.2
2017-Jun-20 04:29N 63°21' E 009°10'5 9.0
2017-Jun-20 03:52N 63°26' E 009°08'410.0
2017-Jun-20 03:29N 63°29' E 009°01'712.1
2017-Jun-20 02:55N 63°26' E 008°47'712.1
2017-Jun-20 02:21N 63°24' E 008°33'411.6
2017-Jun-20 02:00N 63°22' E 008°24'611.5
2017-Jun-20 01:30N 63°18' E 008°15'611.6
2017-Jun-20 01:00N 63°15' E 008°04'511.2
2017-Jun-20 00:30N 63°13' E 007°53'5 9.6
2017-Jun-20 00:00N 63°14' E 007°43'3 6.7
2017-Jun-19 23:30N 63°15' E 007°35'3 5.9
2017-Jun-19 23:00N 63°14' E 007°29'0 0.3
2017-Jun-19 22:30N 63°14' E 007°29'1 2.5
2017-Jun-19 22:00N 63°15' E 007°31'1 2.9
2017-Jun-19 21:30N 63°14' E 007°28'3 5.3
2017-Jun-19 21:00N 63°13' E 007°23'3 5.0
2017-Jun-19 20:30N 63°12' E 007°18'2 5.0
2017-Jun-19 20:00N 63°11' E 007°13'3 5.1
2017-Jun-19 19:30N 63°10' E 007°08'3 5.2
2017-Jun-19 19:00N 63°09' E 007°03'3 5.2
2017-Jun-19 18:30N 63°08' E 006°58'3 5.5
2017-Jun-19 18:00N 63°06' E 006°52'3 6.2
2017-Jun-19 17:29N 63°05' E 006°46'3 6.4
2017-Jun-19 17:00N 63°04' E 006°40'4 7.2
2017-Jun-19 16:30N 63°02' E 006°32'4 7.2
2017-Jun-19 16:00N 63°01' E 006°25'4 7.4
2017-Jun-19 15:30N 62°59' E 006°18'4 7.3
2017-Jun-19 15:00N 62°57' E 006°11'3 5.9
2017-Jun-19 14:30N 62°56' E 006°05'6 6.1
2017-Jun-19 13:30N 62°53' E 005°53'3 6.0
2017-Jun-19 13:00N 62°52' E 005°48'3 5.5
2017-Jun-19 12:30N 62°50' E 005°43'3 5.5
2017-Jun-19 12:00N 62°48' E 005°40'3 5.6
2017-Jun-19 11:29N 62°45' E 005°36'3 5.8
2017-Jun-19 11:00N 62°43' E 005°32'4 8.8
2017-Jun-19 10:30N 62°40' E 005°26'5 9.8
2017-Jun-19 10:00N 62°36' E 005°20'5 9.8
2017-Jun-19 09:30N 62°32' E 005°13'510.1
2017-Jun-19 09:00N 62°28' E 005°07'510.2
2017-Jun-19 08:30N 62°24' E 004°60'510.0
2017-Jun-19 08:00N 62°20' E 004°53'5 9.7
2017-Jun-19 07:30N 62°16' E 004°47'5 9.8
2017-Jun-19 07:00N 62°12' E 004°41'5 9.7
2017-Jun-19 06:30N 62°07' E 004°37'5 9.8
2017-Jun-19 06:00N 62°03' E 004°35'510.2
2017-Jun-19 05:30N 61°58' E 004°33'510.0
2017-Jun-19 05:00N 61°53' E 004°31'5 9.5
2017-Jun-19 04:30N 61°48' E 004°29'5 9.4
2017-Jun-19 03:59N 61°43' E 004°28'5 9.8
2017-Jun-19 03:30N 61°39' E 004°26'5 9.9
2017-Jun-19 03:00N 61°34' E 004°24'510.4
2017-Jun-19 02:29N 61°28' E 004°22'510.9
2017-Jun-19 02:00N 61°23' E 004°20'611.2
2017-Jun-19 01:30N 61°18' E 004°18'1510.7
2017-Jun-19 00:07N 61°03' E 004°15'111.0
2017-Jun-19 00:00N 61°02' E 004°15'510.6
2017-Jun-18 23:30N 60°56' E 004°15'14010.2
2017-Jun-18 09:50N 58°37' E 004°31'310.4
2017-Jun-18 09:30N 58°33' E 004°32'21210.0
2017-Jun-17 12:21N 55°02' E 005°02'113 9.4
2017-Jun-17 00:16N 53°10' E 004°30'310.2
2017-Jun-16 23:57N 53°07' E 004°28'910.2
2017-Jun-16 23:03N 52°59' E 004°22'110.5
2017-Jun-16 22:59N 52°58' E 004°21'510.5
2017-Jun-16 22:30N 52°54' E 004°18'810.5
2017-Jun-16 21:46N 52°47' E 004°12'310.6
2017-Jun-16 21:28N 52°44' E 004°09'8 9.8
2017-Jun-16 20:41N 52°38' E 004°17'210.2
2017-Jun-16 20:28N 52°37' E 004°19'510.4
2017-Jun-16 20:00N 52°33' E 004°24'510.2
2017-Jun-16 19:30N 52°28' E 004°28'4 8.3
2017-Jun-16 19:00N 52°28' E 004°35'1 1.3
2017-Jun-16 18:30N 52°28' E 004°36'3 6.0
2017-Jun-16 18:00N 52°27' E 004°41'4 8.6
2017-Jun-16 17:30N 52°25' E 004°47'1 1.2
2017-Jun-16 16:59N 52°24' E 004°47'0 0.0
2017-Jun-16 16:26N 52°24' E 004°47'0 0.0
2017-Jun-16 16:00N 52°24' E 004°47'0 0.0
2017-Jun-16 15:30N 52°24' E 004°47'0 0.0
2017-Jun-16 15:00N 52°24' E 004°47'0 0.0
2017-Jun-16 13:59N 52°24' E 004°47'0 0.0
2017-Jun-16 13:30N 52°24' E 004°47'0 0.0
2017-Jun-16 12:59N 52°24' E 004°47'0 0.0
2017-Jun-16 12:30N 52°24' E 004°47'0 0.0
2017-Jun-16 11:51N 52°24' E 004°47'0 0.0
2017-Jun-16 11:29N 52°24' E 004°47'0 0.0
2017-Jun-16 10:59N 52°24' E 004°47'0 0.0
2017-Jun-16 10:29N 52°24' E 004°47'0 0.0
2017-Jun-16 10:00N 52°24' E 004°47'0 0.0
2017-Jun-16 09:20N 52°24' E 004°47'0 0.0
2017-Jun-16 09:00N 52°24' E 004°47'0 0.0
2017-Jun-16 08:30N 52°24' E 004°47'0 0.0
2017-Jun-16 07:59N 52°24' E 004°47'0 0.0
2017-Jun-16 07:29N 52°24' E 004°47'0 0.0
2017-Jun-16 06:57N 52°24' E 004°47'0 0.0
2017-Jun-16 06:30N 52°24' E 004°47'0 0.0
2017-Jun-16 05:56N 52°24' E 004°47'0 0.0
2017-Jun-16 04:59N 52°24' E 004°47'0 0.0
2017-Jun-16 04:27N 52°24' E 004°47'0 0.0
2017-Jun-16 03:53N 52°24' E 004°47'0 0.0
2017-Jun-16 03:30N 52°24' E 004°47'0 0.0
2017-Jun-16 02:57N 52°24' E 004°47'0 0.0
2017-Jun-16 02:30N 52°24' E 004°47'0 0.0
2017-Jun-16 01:56N 52°24' E 004°47'0 0.0
2017-Jun-16 01:29N 52°24' E 004°47'0 0.0
2017-Jun-16 00:59N 52°24' E 004°47'0 0.0
2017-Jun-16 00:18N 52°24' E 004°47'0 0.0
2017-Jun-16 00:00N 52°24' E 004°47'0 0.0
2017-Jun-15 23:29N 52°24' E 004°47'0 0.0
2017-Jun-15 22:56N 52°24' E 004°47'0 0.1
2017-Jun-15 22:30N 52°24' E 004°47'2 3.7
2017-Jun-15 22:00N 52°26' E 004°45'5 9.6
2017-Jun-15 21:30N 52°28' E 004°38'1 3.0
2017-Jun-15 21:00N 52°28' E 004°36'1 1.3
2017-Jun-15 20:30N 52°28' E 004°35'2 4.8
2017-Jun-15 20:00N 52°28' E 004°31'510.6
2017-Jun-15 19:30N 52°28' E 004°22'612.2
2017-Jun-15 19:00N 52°27' E 004°12'612.3
2017-Jun-15 18:30N 52°26' E 004°02'3 6.3
2017-Jun-15 18:00N 52°26' E 003°57'0 0.0
2017-Jun-15 17:21N 52°26' E 003°57'0 0.1
2017-Jun-15 17:00N 52°26' E 003°57'0 0.0
2017-Jun-15 16:24N 52°26' E 003°57'0 0.1
2017-Jun-15 15:48N 52°26' E 003°57'0 0.1
2017-Jun-15 15:30N 52°26' E 003°57'0 0.1
2017-Jun-15 15:00N 52°26' E 003°57'0 0.0
2017-Jun-15 14:24N 52°26' E 003°57'0 0.1
2017-Jun-15 13:18N 52°25' E 003°57'0 0.0
2017-Jun-15 12:57N 52°25' E 003°57'0 0.0
2017-Jun-15 12:30N 52°25' E 003°57'0 0.8
2017-Jun-15 12:00N 52°26' E 003°56'5 9.0
2017-Jun-15 11:28N 52°25' E 003°49'5 9.9
2017-Jun-15 10:58N 52°22' E 003°42'610.1
2017-Jun-15 10:25N 52°19' E 003°34'410.2
2017-Jun-15 09:59N 52°16' E 003°29'5110.8
2017-Jun-15 05:18N 51°48' E 002°20'511.7
2017-Jun-15 04:50N 51°45' E 002°13'411.8
2017-Jun-15 04:30N 51°43' E 002°07'611.8
2017-Jun-15 04:00N 51°40' E 001°59'611.6
2017-Jun-15 03:30N 51°37' E 001°51'510.7
2017-Jun-15 03:00N 51°34' E 001°44'510.1
2017-Jun-15 02:30N 51°32' E 001°37'5 9.8
2017-Jun-15 02:00N 51°30' E 001°30'5 8.9
2017-Jun-15 01:30N 51°29' E 001°23'4 7.9
2017-Jun-15 00:59N 51°29' E 001°16'4 8.2
2017-Jun-15 00:30N 51°29' E 001°10'4 8.6
2017-Jun-15 00:00N 51°29' E 001°03'5 9.1
2017-Jun-14 23:29N 51°29' E 000°56'4 8.5
2017-Jun-14 23:00N 51°29' E 000°49'4 9.1
2017-Jun-14 22:30N 51°30' E 000°42'5 9.6
2017-Jun-14 22:00N 51°30' E 000°34'4 9.0
2017-Jun-14 21:30N 51°28' E 000°27'5 9.2
2017-Jun-14 21:01N 51°27' E 000°20'0 0.4
2017-Jun-14 20:31N 51°27' E 000°20'  
Track history (hours):
 
Tides and Currents Weather Stations Pressure Air Temp Water Temp Dewpoint Dewpoint Depression Visibility Wind Speed Wind Dir Waves Ship Positions

#dbistima

Last reported at 2017-Jun-24 20:30 UTC. Time now 2017-Jun-24 20:37 UTC.
Position N 63°33' E 009°52'.

MMSI: 304010972.

Date/timePositionNaut miles runAvg speedWind from/ knotsBaromVisibWave heightAir tempDewpointWater temp
2017-Jun-24 20:30N 63°33' E 009°52'5 9.0
2017-Jun-24 20:00N 63°29' E 009°56'4 8.7
2017-Jun-24 19:30N 63°25' E 010°00'5 9.9
2017-Jun-24 19:00N 63°21' E 009°55'3 5.0
2017-Jun-24 18:30N 63°19' E 009°51'0 0.0
2017-Jun-24 18:00N 63°19' E 009°51'0 0.0
2017-Jun-24 17:30N 63°19' E 009°51'0 0.0
2017-Jun-24 17:00N 63°19' E 009°51'0 0.0
2017-Jun-24 16:30N 63°19' E 009°51'0 0.0
2017-Jun-24 16:00N 63°19' E 009°51'0 0.0
2017-Jun-24 15:27N 63°19' E 009°51'0 0.0
2017-Jun-24 15:00N 63°19' E 009°51'0 0.0
2017-Jun-24 14:00N 63°19' E 009°51'0 0.0
2017-Jun-24 13:30N 63°19' E 009°51'0 0.0
2017-Jun-24 13:00N 63°19' E 009°51'0 0.0
2017-Jun-24 12:30N 63°19' E 009°51'0 0.0
2017-Jun-24 12:00N 63°19' E 009°51'0 0.0
2017-Jun-24 11:30N 63°19' E 009°51'0 0.0
2017-Jun-24 11:00N 63°19' E 009°51'0 0.0
2017-Jun-24 10:30N 63°19' E 009°51'0 0.0
2017-Jun-24 10:00N 63°19' E 009°51'0 0.0
2017-Jun-24 09:30N 63°19' E 009°51'0 0.0
2017-Jun-24 09:00N 63°19' E 009°51'0 0.0
2017-Jun-24 08:30N 63°19' E 009°51'0 0.0
2017-Jun-24 08:00N 63°19' E 009°51'0 0.0
2017-Jun-24 07:30N 63°19' E 009°51'0 0.0
2017-Jun-24 07:00N 63°19' E 009°51'0 0.0
2017-Jun-24 06:30N 63°19' E 009°51'0 0.0
2017-Jun-24 06:00N 63°19' E 009°51'0 0.0
2017-Jun-24 05:30N 63°19' E 009°51'0 0.0
2017-Jun-24 05:00N 63°19' E 009°51'0 0.0
2017-Jun-24 04:30N 63°19' E 009°51'0 0.0
2017-Jun-24 04:00N 63°19' E 009°51'0 0.0
2017-Jun-24 03:30N 63°19' E 009°51'0 0.0
2017-Jun-24 03:00N 63°19' E 009°51'0 0.0
2017-Jun-24 02:30N 63°19' E 009°51'0 0.0
2017-Jun-24 02:00N 63°19' E 009°51'0 0.0
2017-Jun-24 01:30N 63°19' E 009°51'0 0.0
2017-Jun-24 01:00N 63°19' E 009°51'0 0.0
2017-Jun-24 00:30N 63°19' E 009°51'0 0.0
2017-Jun-24 00:00N 63°19' E 009°51'0 0.0
2017-Jun-23 23:30N 63°19' E 009°51'0 0.0
2017-Jun-23 23:00N 63°19' E 009°51'0 0.0
2017-Jun-23 22:30N 63°19' E 009°51'0 0.0
2017-Jun-23 22:00N 63°19' E 009°51'0 0.0
2017-Jun-23 21:30N 63°19' E 009°51'0 0.0
2017-Jun-23 21:00N 63°19' E 009°51'0 0.0
2017-Jun-23 20:27N 63°19' E 009°51'0 0.0
2017-Jun-23 20:00N 63°19' E 009°51'0 0.0
2017-Jun-23 19:30N 63°19' E 009°51'0 0.0
2017-Jun-23 19:00N 63°19' E 009°51'0 0.0
2017-Jun-23 18:30N 63°19' E 009°51'0 0.0
2017-Jun-23 18:00N 63°19' E 009°51'0 0.0
2017-Jun-23 17:30N 63°19' E 009°51'0 0.0
2017-Jun-23 17:00N 63°19' E 009°51'0 0.0
2017-Jun-23 16:30N 63°19' E 009°51'0 0.2
2017-Jun-23 16:00N 63°19' E 009°51'0 0.0
2017-Jun-23 15:30N 63°19' E 009°51'0 0.0
2017-Jun-23 15:00N 63°19' E 009°51'0 0.0
2017-Jun-23 14:00N 63°19' E 009°51'0 0.0
2017-Jun-23 13:30N 63°19' E 009°51'0 0.0
2017-Jun-23 13:00N 63°19' E 009°51'0 0.0
2017-Jun-23 12:30N 63°19' E 009°51'0 0.0
2017-Jun-23 12:00N 63°19' E 009°51'0 0.0
2017-Jun-23 11:30N 63°19' E 009°51'0 0.0
2017-Jun-23 11:00N 63°19' E 009°51'0 0.0
2017-Jun-23 10:30N 63°19' E 009°51'0 0.0
2017-Jun-23 10:00N 63°19' E 009°51'0 0.0
2017-Jun-23 09:30N 63°19' E 009°51'0 0.0
2017-Jun-23 09:00N 63°19' E 009°51'0 0.0
2017-Jun-23 08:30N 63°19' E 009°51'0 0.0
2017-Jun-23 08:00N 63°19' E 009°51'0 0.0
2017-Jun-23 07:30N 63°19' E 009°51'0 0.0
2017-Jun-23 07:00N 63°19' E 009°51'0 0.0
2017-Jun-23 06:27N 63°19' E 009°51'0 0.0
2017-Jun-23 06:00N 63°19' E 009°51'0 0.0
2017-Jun-23 05:30N 63°19' E 009°51'0 0.5
2017-Jun-23 05:00N 63°19' E 009°51'3 6.0
2017-Jun-23 04:30N 63°21' E 009°56'510.7
2017-Jun-23 04:00N 63°26' E 009°59'510.2
2017-Jun-23 03:30N 63°31' E 009°54'5 9.7
2017-Jun-23 03:00N 63°35' E 009°49'4 8.6
2017-Jun-23 02:30N 63°39' E 009°45'5 9.1
2017-Jun-23 02:00N 63°38' E 009°36'4 8.6
2017-Jun-23 01:30N 63°36' E 009°28'5 9.5
2017-Jun-23 01:00N 63°33' E 009°18'5 9.5
2017-Jun-23 00:30N 63°31' E 009°09'4 7.2
2017-Jun-23 00:00N 63°28' E 009°05'5 9.9
2017-Jun-22 23:30N 63°23' E 009°11'4 8.5
2017-Jun-22 23:00N 63°19' E 009°08'0 0.7
2017-Jun-22 22:28N 63°19' E 009°09'0 0.0
2017-Jun-22 21:58N 63°19' E 009°09'0 0.0
2017-Jun-22 21:28N 63°19' E 009°09'0 0.0
2017-Jun-22 20:58N 63°19' E 009°09'0 0.0
2017-Jun-22 20:28N 63°19' E 009°09'0 0.0
2017-Jun-22 19:58N 63°19' E 009°09'0 0.0
2017-Jun-22 19:28N 63°19' E 009°09'0 0.0
2017-Jun-22 18:58N 63°19' E 009°09'0 0.0
2017-Jun-22 18:28N 63°19' E 009°09'0 0.0
2017-Jun-22 17:58N 63°19' E 009°09'0 0.0
2017-Jun-22 17:28N 63°19' E 009°09'0 0.0
2017-Jun-22 16:58N 63°19' E 009°09'0 0.0
2017-Jun-22 16:28N 63°19' E 009°09'0 0.0
2017-Jun-22 15:58N 63°19' E 009°09'0 0.0
2017-Jun-22 15:28N 63°19' E 009°09'0 0.0
2017-Jun-22 14:58N 63°19' E 009°09'0 0.0
2017-Jun-22 14:28N 63°19' E 009°09'0 0.0
2017-Jun-22 13:28N 63°19' E 009°09'0 0.0
2017-Jun-22 12:58N 63°19' E 009°09'0 0.0
2017-Jun-22 12:25N 63°19' E 009°09'0 0.0
2017-Jun-22 11:58N 63°19' E 009°09'0 0.0
2017-Jun-22 11:28N 63°19' E 009°09'0 0.0
2017-Jun-22 10:55N 63°19' E 009°09'0 0.0
2017-Jun-22 10:28N 63°19' E 009°09'0 0.0
2017-Jun-22 09:58N 63°19' E 009°09'0 0.0
2017-Jun-22 09:25N 63°19' E 009°09'0 0.0
2017-Jun-22 08:58N 63°19' E 009°09'0 0.0
2017-Jun-22 08:28N 63°19' E 009°09'0 0.0
2017-Jun-22 07:58N 63°19' E 009°09'0 0.0
2017-Jun-22 07:28N 63°19' E 009°09'0 0.0
2017-Jun-22 06:58N 63°19' E 009°09'0 0.0
2017-Jun-22 06:28N 63°19' E 009°09'0 0.0
2017-Jun-22 05:58N 63°19' E 009°09'0 0.0
2017-Jun-22 05:28N 63°19' E 009°09'0 0.0
2017-Jun-22 04:58N 63°19' E 009°09'0 0.0
2017-Jun-22 04:22N 63°19' E 009°09'0 0.0
2017-Jun-22 03:58N 63°19' E 009°09'0 0.0
2017-Jun-22 03:28N 63°19' E 009°09'0 0.0
2017-Jun-22 02:58N 63°19' E 009°09'0 0.0
2017-Jun-22 02:28N 63°19' E 009°09'0 0.0
2017-Jun-22 01:58N 63°19' E 009°09'0 0.0
2017-Jun-22 01:28N 63°19' E 009°09'0 0.0
2017-Jun-22 00:58N 63°19' E 009°09'0 0.0
2017-Jun-22 00:28N 63°19' E 009°09'0 0.0
2017-Jun-21 23:58N 63°19' E 009°09'0 0.0
2017-Jun-21 23:28N 63°19' E 009°09'0 0.0
2017-Jun-21 22:55N 63°19' E 009°09'0 0.0
2017-Jun-21 22:28N 63°19' E 009°09'0 0.0
2017-Jun-21 21:58N 63°19' E 009°09'0 0.0
2017-Jun-21 21:25N 63°19' E 009°09'0 0.0
2017-Jun-21 20:58N 63°19' E 009°09'0 0.0
2017-Jun-21 20:28N 63°19' E 009°09'0 0.0
2017-Jun-21 19:58N 63°19' E 009°09'0 0.0
2017-Jun-21 19:28N 63°19' E 009°09'0 0.0
2017-Jun-21 18:58N 63°19' E 009°09'0 0.0
2017-Jun-21 18:28N 63°19' E 009°09'0 0.0
2017-Jun-21 17:58N 63°19' E 009°09'0 0.0
2017-Jun-21 17:28N 63°19' E 009°09'0 0.0
2017-Jun-21 16:58N 63°19' E 009°09'0 0.0
2017-Jun-21 16:28N 63°19' E 009°09'0 0.0
2017-Jun-21 15:58N 63°19' E 009°09'0 0.0
2017-Jun-21 15:28N 63°19' E 009°09'0 0.0
2017-Jun-21 14:58N 63°19' E 009°09'0 0.0
2017-Jun-21 14:28N 63°19' E 009°09'0 0.0
2017-Jun-21 13:22N 63°19' E 009°09'0 0.0
2017-Jun-21 12:58N 63°19' E 009°09'0 0.0
2017-Jun-21 12:22N 63°19' E 009°09'0 0.0
2017-Jun-21 11:49N 63°19' E 009°09'0 0.0
2017-Jun-21 11:28N 63°19' E 009°09'0 0.0
2017-Jun-21 10:58N 63°19' E 009°09'0 0.0
2017-Jun-21 10:25N 63°19' E 009°09'0 0.0
2017-Jun-21 09:52N 63°19' E 009°09'0 0.0
2017-Jun-21 09:28N 63°19' E 009°09'0 0.0
2017-Jun-21 08:58N 63°19' E 009°09'0 0.0
2017-Jun-21 07:55N 63°19' E 009°09'0 0.0
2017-Jun-21 07:28N 63°19' E 009°09'0 0.0
2017-Jun-21 06:58N 63°19' E 009°09'0 0.0
2017-Jun-21 06:13N 63°19' E 009°09'0 0.0
2017-Jun-21 05:58N 63°19' E 009°09'0 0.0
2017-Jun-21 05:28N 63°19' E 009°09'0 0.0
2017-Jun-21 04:55N 63°19' E 009°09'0 0.0
2017-Jun-21 04:28N 63°19' E 009°09'0 0.0
2017-Jun-21 03:58N 63°19' E 009°09'0 0.0
2017-Jun-21 03:28N 63°19' E 009°09'0 0.0
2017-Jun-21 02:58N 63°19' E 009°09'0 0.0
2017-Jun-21 02:28N 63°19' E 009°09'0 0.0
2017-Jun-21 01:55N 63°19' E 009°09'0 0.0
2017-Jun-21 01:28N 63°19' E 009°09'0 0.0
2017-Jun-21 00:58N 63°19' E 009°09'0 0.0
2017-Jun-21 00:19N 63°19' E 009°09'0 0.0
2017-Jun-20 23:58N 63°19' E 009°09'0 0.0
2017-Jun-20 23:28N 63°19' E 009°09'0 0.0
2017-Jun-20 22:58N 63°19' E 009°09'0 0.0
2017-Jun-20 22:28N 63°19' E 009°09'0 0.0
2017-Jun-20 21:58N 63°19' E 009°09'0 0.0
2017-Jun-20 21:28N 63°19' E 009°09'0 0.0
2017-Jun-20 20:58N 63°19' E 009°09'0 0.0
2017-Jun-20 20:28N 63°19' E 009°09'0 0.0
2017-Jun-20 19:58N 63°19' E 009°09'0 0.0
2017-Jun-20 19:07N 63°19' E 009°09'0 0.0
2017-Jun-20 18:58N 63°19' E 009°09'0 0.0
2017-Jun-20 18:19N 63°19' E 009°09'0 0.0
2017-Jun-20 17:58N 63°19' E 009°09'0 0.0
2017-Jun-20 17:28N 63°19' E 009°09'0 0.0
2017-Jun-20 16:55N 63°19' E 009°09'0 0.0
2017-Jun-20 16:25N 63°19' E 009°09'0 0.0
2017-Jun-20 15:55N 63°19' E 009°09'0 0.0
2017-Jun-20 15:16N 63°19' E 009°09'0 0.0
2017-Jun-20 14:49N 63°19' E 009°09'0 0.0
2017-Jun-20 14:25N 63°19' E 009°09'0 0.0
2017-Jun-20 13:22N 63°19' E 009°09'0 0.0
2017-Jun-20 12:43N 63°19' E 009°09'0 0.0
2017-Jun-20 12:28N 63°19' E 009°09'0 0.0
2017-Jun-20 11:49N 63°19' E 009°09'0 0.0
2017-Jun-20 11:25N 63°19' E 009°09'0 0.0
2017-Jun-20 10:49N 63°19' E 009°09'0 0.0
2017-Jun-20 10:28N 63°19' E 009°09'0 0.0
2017-Jun-20 09:55N 63°19' E 009°09'0 0.0
2017-Jun-20 09:28N 63°19' E 009°09'0 0.0
2017-Jun-20 08:55N 63°19' E 009°09'0 0.0
2017-Jun-20 08:25N 63°19' E 009°09'0 0.0
2017-Jun-20 07:55N 63°19' E 009°09'0 0.0
2017-Jun-20 07:22N 63°19' E 009°09'0 0.0
2017-Jun-20 06:58N 63°19' E 009°09'0 0.0
2017-Jun-20 06:28N 63°19' E 009°09'0 0.0
2017-Jun-20 05:55N 63°19' E 009°09'0 0.0
2017-Jun-20 05:28N 63°19' E 009°09'0 0.0
2017-Jun-20 04:58N 63°19' E 009°09'2 3.2
2017-Jun-20 04:29N 63°21' E 009°10'5 9.0
2017-Jun-20 03:52N 63°26' E 009°08'410.0
2017-Jun-20 03:29N 63°29' E 009°01'712.1
2017-Jun-20 02:55N 63°26' E 008°47'712.1
2017-Jun-20 02:21N 63°24' E 008°33'411.6
2017-Jun-20 02:00N 63°22' E 008°24'611.5
2017-Jun-20 01:30N 63°18' E 008°15'611.6
2017-Jun-20 01:00N 63°15' E 008°04'511.2
2017-Jun-20 00:30N 63°13' E 007°53'5 9.6
2017-Jun-20 00:00N 63°14' E 007°43'3 6.7
2017-Jun-19 23:30N 63°15' E 007°35'3 5.9
2017-Jun-19 23:00N 63°14' E 007°29'0 0.3
2017-Jun-19 22:30N 63°14' E 007°29'1 2.5
2017-Jun-19 22:00N 63°15' E 007°31'1 2.9
2017-Jun-19 21:30N 63°14' E 007°28'3 5.3
2017-Jun-19 21:00N 63°13' E 007°23'3 5.0
2017-Jun-19 20:30N 63°12' E 007°18'2 5.0
2017-Jun-19 20:00N 63°11' E 007°13'3 5.1
2017-Jun-19 19:30N 63°10' E 007°08'3 5.2
2017-Jun-19 19:00N 63°09' E 007°03'3 5.2
2017-Jun-19 18:30N 63°08' E 006°58'3 5.5
2017-Jun-19 18:00N 63°06' E 006°52'3 6.2
2017-Jun-19 17:29N 63°05' E 006°46'3 6.4
2017-Jun-19 17:00N 63°04' E 006°40'4 7.2
2017-Jun-19 16:30N 63°02' E 006°32'4 7.2
2017-Jun-19 16:00N 63°01' E 006°25'4 7.4
2017-Jun-19 15:30N 62°59' E 006°18'4 7.3
2017-Jun-19 15:00N 62°57' E 006°11'3 5.9
2017-Jun-19 14:30N 62°56' E 006°05'6 6.1
2017-Jun-19 13:30N 62°53' E 005°53'3 6.0
2017-Jun-19 13:00N 62°52' E 005°48'3 5.5
2017-Jun-19 12:30N 62°50' E 005°43'3 5.5
2017-Jun-19 12:00N 62°48' E 005°40'3 5.6
2017-Jun-19 11:29N 62°45' E 005°36'3 5.8
2017-Jun-19 11:00N 62°43' E 005°32'4 8.8
2017-Jun-19 10:30N 62°40' E 005°26'5 9.8
2017-Jun-19 10:00N 62°36' E 005°20'5 9.8
2017-Jun-19 09:30N 62°32' E 005°13'510.1
2017-Jun-19 09:00N 62°28' E 005°07'510.2
2017-Jun-19 08:30N 62°24' E 004°60'510.0
2017-Jun-19 08:00N 62°20' E 004°53'5 9.7
2017-Jun-19 07:30N 62°16' E 004°47'5 9.8
2017-Jun-19 07:00N 62°12' E 004°41'5 9.7
2017-Jun-19 06:30N 62°07' E 004°37'5 9.8
2017-Jun-19 06:00N 62°03' E 004°35'510.2
2017-Jun-19 05:30N 61°58' E 004°33'510.0
2017-Jun-19 05:00N 61°53' E 004°31'5 9.5
2017-Jun-19 04:30N 61°48' E 004°29'5 9.4
2017-Jun-19 03:59N 61°43' E 004°28'5 9.8
2017-Jun-19 03:30N 61°39' E 004°26'5 9.9
2017-Jun-19 03:00N 61°34' E 004°24'510.4
2017-Jun-19 02:29N 61°28' E 004°22'510.9
2017-Jun-19 02:00N 61°23' E 004°20'611.2
2017-Jun-19 01:30N 61°18' E 004°18'1510.7
2017-Jun-19 00:07N 61°03' E 004°15'111.0
2017-Jun-19 00:00N 61°02' E 004°15'510.6
2017-Jun-18 23:30N 60°56' E 004°15'14010.2
2017-Jun-18 09:50N 58°37' E 004°31'310.4
2017-Jun-18 09:30N 58°33' E 004°32'21210.0
2017-Jun-17 12:21N 55°02' E 005°02'113 9.4
2017-Jun-17 00:16N 53°10' E 004°30'310.2
2017-Jun-16 23:57N 53°07' E 004°28'910.2
2017-Jun-16 23:03N 52°59' E 004°22'110.5
2017-Jun-16 22:59N 52°58' E 004°21'510.5
2017-Jun-16 22:30N 52°54' E 004°18'810.5
2017-Jun-16 21:46N 52°47' E 004°12'310.6
2017-Jun-16 21:28N 52°44' E 004°09'8 9.8
2017-Jun-16 20:41N 52°38' E 004°17'210.2
2017-Jun-16 20:28N 52°37' E 004°19'510.4
2017-Jun-16 20:00N 52°33' E 004°24'510.2
2017-Jun-16 19:30N 52°28' E 004°28'4 8.3
2017-Jun-16 19:00N 52°28' E 004°35'1 1.3
2017-Jun-16 18:30N 52°28' E 004°36'3 6.0
2017-Jun-16 18:00N 52°27' E 004°41'4 8.6
2017-Jun-16 17:30N 52°25' E 004°47'1 1.2
2017-Jun-16 16:59N 52°24' E 004°47'0 0.0
2017-Jun-16 16:26N 52°24' E 004°47'0 0.0
2017-Jun-16 16:00N 52°24' E 004°47'0 0.0
2017-Jun-16 15:30N 52°24' E 004°47'0 0.0
2017-Jun-16 15:00N 52°24' E 004°47'0 0.0
2017-Jun-16 13:59N 52°24' E 004°47'0 0.0
2017-Jun-16 13:30N 52°24' E 004°47'0 0.0
2017-Jun-16 12:59N 52°24' E 004°47'0 0.0
2017-Jun-16 12:30N 52°24' E 004°47'0 0.0
2017-Jun-16 11:51N 52°24' E 004°47'0 0.0
2017-Jun-16 11:29N 52°24' E 004°47'0 0.0
2017-Jun-16 10:59N 52°24' E 004°47'0 0.0
2017-Jun-16 10:29N 52°24' E 004°47'0 0.0
2017-Jun-16 10:00N 52°24' E 004°47'0 0.0
2017-Jun-16 09:20N 52°24' E 004°47'0 0.0
2017-Jun-16 09:00N 52°24' E 004°47'0 0.0
2017-Jun-16 08:30N 52°24' E 004°47'0 0.0
2017-Jun-16 07:59N 52°24' E 004°47'0 0.0
2017-Jun-16 07:29N 52°24' E 004°47'0 0.0
2017-Jun-16 06:57N 52°24' E 004°47'0 0.0
2017-Jun-16 06:30N 52°24' E 004°47'0 0.0
2017-Jun-16 05:56N 52°24' E 004°47'0 0.0
2017-Jun-16 04:59N 52°24' E 004°47'0 0.0
2017-Jun-16 04:27N 52°24' E 004°47'0 0.0
2017-Jun-16 03:53N 52°24' E 004°47'0 0.0
2017-Jun-16 03:30N 52°24' E 004°47'0 0.0
2017-Jun-16 02:57N 52°24' E 004°47'0 0.0
2017-Jun-16 02:30N 52°24' E 004°47'0 0.0
2017-Jun-16 01:56N 52°24' E 004°47'0 0.0
2017-Jun-16 01:29N 52°24' E 004°47'0 0.0
2017-Jun-16 00:59N 52°24' E 004°47'0 0.0
2017-Jun-16 00:18N 52°24' E 004°47'0 0.0
2017-Jun-16 00:00N 52°24' E 004°47'0 0.0
2017-Jun-15 23:29N 52°24' E 004°47'0 0.0
2017-Jun-15 22:56N 52°24' E 004°47'0 0.1
2017-Jun-15 22:30N 52°24' E 004°47'2 3.7
2017-Jun-15 22:00N 52°26' E 004°45'5 9.6
2017-Jun-15 21:30N 52°28' E 004°38'1 3.0
2017-Jun-15 21:00N 52°28' E 004°36'1 1.3
2017-Jun-15 20:30N 52°28' E 004°35'2 4.8
2017-Jun-15 20:00N 52°28' E 004°31'510.6
2017-Jun-15 19:30N 52°28' E 004°22'612.2
2017-Jun-15 19:00N 52°27' E 004°12'612.3
2017-Jun-15 18:30N 52°26' E 004°02'3 6.3
2017-Jun-15 18:00N 52°26' E 003°57'0 0.0
2017-Jun-15 17:21N 52°26' E 003°57'0 0.1
2017-Jun-15 17:00N 52°26' E 003°57'0 0.0
2017-Jun-15 16:24N 52°26' E 003°57'0 0.1
2017-Jun-15 15:48N 52°26' E 003°57'0 0.1
2017-Jun-15 15:30N 52°26' E 003°57'0 0.1
2017-Jun-15 15:00N 52°26' E 003°57'0 0.0
2017-Jun-15 14:24N 52°26' E 003°57'0 0.1
2017-Jun-15 13:18N 52°25' E 003°57'0 0.0
2017-Jun-15 12:57N 52°25' E 003°57'0 0.0
2017-Jun-15 12:30N 52°25' E 003°57'0 0.8
2017-Jun-15 12:00N 52°26' E 003°56'5 9.0
2017-Jun-15 11:28N 52°25' E 003°49'5 9.9
2017-Jun-15 10:58N 52°22' E 003°42'610.1
2017-Jun-15 10:25N 52°19' E 003°34'410.2
2017-Jun-15 09:59N 52°16' E 003°29'5110.8
2017-Jun-15 05:18N 51°48' E 002°20'511.7
2017-Jun-15 04:50N 51°45' E 002°13'411.8
2017-Jun-15 04:30N 51°43' E 002°07'611.8
2017-Jun-15 04:00N 51°40' E 001°59'611.6
2017-Jun-15 03:30N 51°37' E 001°51'510.7
2017-Jun-15 03:00N 51°34' E 001°44'510.1
2017-Jun-15 02:30N 51°32' E 001°37'5 9.8
2017-Jun-15 02:00N 51°30' E 001°30'5 8.9
2017-Jun-15 01:30N 51°29' E 001°23'4 7.9
2017-Jun-15 00:59N 51°29' E 001°16'4 8.2
2017-Jun-15 00:30N 51°29' E 001°10'4 8.6
2017-Jun-15 00:00N 51°29' E 001°03'5 9.1
2017-Jun-14 23:29N 51°29' E 000°56'4 8.5
2017-Jun-14 23:00N 51°29' E 000°49'4 9.1
2017-Jun-14 22:30N 51°30' E 000°42'5 9.6
2017-Jun-14 22:00N 51°30' E 000°34'4 9.0
2017-Jun-14 21:30N 51°28' E 000°27'5 9.2
2017-Jun-14 21:01N 51°27' E 000°20'0 0.4
2017-Jun-14 20:31N 51°27' E 000°20'  

Dump ship's entire track history